Guadalupe — WDG4440 — position and weather

sailwx.info

Track history (hours):
 
Tides and Currents Weather Stations Pressure Air Temp Water Temp Dewpoint Dewpoint Depression Visibility Wind Speed Wind Dir Waves Ship Positions

Guadalupe

Owner: Higman Barge Lines., Inc, Orange, TX. More information available from US FCC via Universal Licensing System and Coast Guard Vessel Documentation Center.

Last reported at 2018-Jan-24 05:29 UTC. Time now 2018-Jan-24 05:50 UTC.
Position N 29°37' W 095°01'.

Length 26 m; draft 3 m.

Type: Towing. MMSI: 367536590.

Date/timePositionNaut miles runAvg speedWind from/ knotsBaromVisibWave heightAir tempDewpointWater temp
2018-Jan-24 05:29N 29°37' W 095°01'0 0.0
2018-Jan-24 04:59N 29°37' W 095°01'0 0.0
2018-Jan-24 04:29N 29°37' W 095°01'0 0.0
2018-Jan-24 03:59N 29°37' W 095°01'0 0.0
2018-Jan-24 03:29N 29°37' W 095°01'0 0.0
2018-Jan-24 02:59N 29°37' W 095°01'0 0.0
2018-Jan-24 02:26N 29°37' W 095°01'0 0.0
2018-Jan-24 01:59N 29°37' W 095°01'0 0.1
2018-Jan-24 01:29N 29°37' W 095°01'1 1.2
2018-Jan-24 01:00N 29°37' W 095°01'3 5.3
2018-Jan-24 00:30N 29°37' W 094°58'3 5.7
2018-Jan-24 00:01N 29°35' W 094°56'4 7.4
2018-Jan-23 23:30N 29°32' W 094°53'70 2.6
2018-Jan-22 20:02N 30°04' W 093°41'0 5.6
2018-Jan-22 20:00N 30°04' W 093°41'3 5.1
2018-Jan-22 19:29N 30°04' W 093°38'2 4.9
2018-Jan-22 18:59N 30°04' W 093°35'2 4.5
2018-Jan-22 18:30N 30°04' W 093°33'2 4.5
2018-Jan-22 18:00N 30°04' W 093°30'2 4.6
2018-Jan-22 17:30N 30°04' W 093°27'2 4.7
2018-Jan-22 17:01N 30°04' W 093°25'2 4.0
2018-Jan-22 16:31N 30°04' W 093°22'2 3.2
2018-Jan-22 16:01N 30°04' W 093°21'2 4.1
2018-Jan-22 15:30N 30°06' W 093°20'3 5.5
2018-Jan-22 15:00N 30°09' W 093°20'2 4.8
2018-Jan-22 14:31N 30°11' W 093°19'3 5.2
2018-Jan-22 14:00N 30°12' W 093°16'1 2.2
2018-Jan-22 13:31N 30°13' W 093°16'1 1.2
2018-Jan-22 12:58N 30°14' W 093°15'0 0.0
2018-Jan-22 12:28N 30°14' W 093°15'0 0.0
2018-Jan-22 11:58N 30°14' W 093°15'0 0.0
2018-Jan-22 11:28N 30°14' W 093°15'0 0.0
2018-Jan-22 10:58N 30°14' W 093°15'0 0.0
2018-Jan-22 10:28N 30°14' W 093°15'0 0.0
2018-Jan-22 09:58N 30°14' W 093°15'0 0.0
2018-Jan-22 09:28N 30°14' W 093°15'0 0.0
2018-Jan-22 08:58N 30°14' W 093°15'0 0.0
2018-Jan-22 08:28N 30°14' W 093°15'0 0.0
2018-Jan-22 07:58N 30°14' W 093°15'0 0.0
2018-Jan-22 07:28N 30°14' W 093°15'0 0.0
2018-Jan-22 06:58N 30°14' W 093°15'0 0.0
2018-Jan-22 06:28N 30°14' W 093°15'0 0.0
2018-Jan-22 05:58N 30°14' W 093°15'0 0.0
2018-Jan-22 05:28N 30°14' W 093°15'0 0.0
2018-Jan-22 04:58N 30°14' W 093°15'0 0.0
2018-Jan-22 04:28N 30°14' W 093°15'0 0.0
2018-Jan-22 03:58N 30°14' W 093°15'0 0.0
2018-Jan-22 03:28N 30°14' W 093°15'0 0.0
2018-Jan-22 02:58N 30°14' W 093°15'0 0.0
2018-Jan-22 02:28N 30°14' W 093°15'0 0.0
2018-Jan-22 01:58N 30°14' W 093°15'0 0.0
2018-Jan-22 01:28N 30°14' W 093°15'0 0.0
2018-Jan-22 00:58N 30°14' W 093°15'0 0.0
2018-Jan-22 00:28N 30°14' W 093°15'0 0.0
2018-Jan-21 23:58N 30°14' W 093°15'0 0.0
2018-Jan-21 23:28N 30°14' W 093°15'0 0.0
2018-Jan-21 22:58N 30°14' W 093°15'0 0.0
2018-Jan-21 22:28N 30°14' W 093°15'0 0.0
2018-Jan-21 21:58N 30°14' W 093°15'0 0.0
2018-Jan-21 21:28N 30°14' W 093°15'0 0.0
2018-Jan-21 20:58N 30°14' W 093°15'0 0.0
2018-Jan-21 20:25N 30°14' W 093°15'0 0.0
2018-Jan-21 19:58N 30°14' W 093°15'0 0.0
2018-Jan-21 19:28N 30°14' W 093°15'0 0.0
2018-Jan-21 18:58N 30°14' W 093°15'0 0.0
2018-Jan-21 18:28N 30°14' W 093°15'0 0.0
2018-Jan-21 17:58N 30°14' W 093°15'0 0.0
2018-Jan-21 17:28N 30°14' W 093°15'0 0.0
2018-Jan-21 16:58N 30°14' W 093°15'0 0.0
2018-Jan-21 16:28N 30°14' W 093°15'0 0.0
2018-Jan-21 15:58N 30°14' W 093°15'0 0.0
2018-Jan-21 15:28N 30°14' W 093°15'0 0.0
2018-Jan-21 14:58N 30°14' W 093°15'0 0.0
2018-Jan-21 14:28N 30°14' W 093°15'0 0.0
2018-Jan-21 13:58N 30°14' W 093°15'0 0.0
2018-Jan-21 13:28N 30°14' W 093°15'0 0.0
2018-Jan-21 12:58N 30°14' W 093°15'0 0.0
2018-Jan-21 12:28N 30°14' W 093°15'0 0.0
2018-Jan-21 11:58N 30°14' W 093°15'0 0.0
2018-Jan-21 11:28N 30°14' W 093°15'0 0.0
2018-Jan-21 10:58N 30°14' W 093°15'0 0.0
2018-Jan-21 10:28N 30°14' W 093°15'0 0.0
2018-Jan-21 09:58N 30°14' W 093°15'0 0.0
2018-Jan-21 09:28N 30°14' W 093°15'0 0.0
2018-Jan-21 08:58N 30°14' W 093°15'0 0.0
2018-Jan-21 08:28N 30°14' W 093°15'0 0.7
2018-Jan-21 08:00N 30°14' W 093°15'2 3.9
2018-Jan-21 07:30N 30°12' W 093°17'2 3.0
2018-Jan-21 06:55N 30°11' W 093°18'0 0.1
2018-Jan-21 06:28N 30°11' W 093°18'0 0.0
2018-Jan-21 05:58N 30°11' W 093°18'0 0.0
2018-Jan-21 05:28N 30°11' W 093°18'0 0.0
2018-Jan-21 04:58N 30°11' W 093°18'0 0.0
2018-Jan-21 04:28N 30°11' W 093°18'0 0.0
2018-Jan-21 03:58N 30°11' W 093°18'0 0.0
2018-Jan-21 03:28N 30°11' W 093°18'0 0.0
2018-Jan-21 02:58N 30°11' W 093°18'0 0.0
2018-Jan-21 02:28N 30°11' W 093°18'0 0.0
2018-Jan-21 01:58N 30°11' W 093°18'0 0.0
2018-Jan-21 01:28N 30°11' W 093°18'0 0.0
2018-Jan-21 00:58N 30°11' W 093°18'0 0.0
2018-Jan-21 00:28N 30°11' W 093°18'0 0.0
2018-Jan-20 23:58N 30°11' W 093°18'0 0.0
2018-Jan-20 23:28N 30°11' W 093°18'0 0.0
2018-Jan-20 22:58N 30°11' W 093°18'0 0.0
2018-Jan-20 22:28N 30°11' W 093°18'0 0.0
2018-Jan-20 21:58N 30°11' W 093°18'0 0.0
2018-Jan-20 21:28N 30°11' W 093°18'0 0.0
2018-Jan-20 20:58N 30°11' W 093°18'0 0.0
2018-Jan-20 20:28N 30°11' W 093°18'0 0.0
2018-Jan-20 19:58N 30°11' W 093°18'0 0.0
2018-Jan-20 19:28N 30°11' W 093°18'0 0.0
2018-Jan-20 18:58N 30°11' W 093°18'0 0.0
2018-Jan-20 18:28N 30°11' W 093°18'0 0.0
2018-Jan-20 17:58N 30°11' W 093°18'0 0.0
2018-Jan-20 17:28N 30°11' W 093°18'0 0.0
2018-Jan-20 16:58N 30°11' W 093°18'0 0.0
2018-Jan-20 16:28N 30°11' W 093°18'0 0.0
2018-Jan-20 15:58N 30°11' W 093°18'0 0.0
2018-Jan-20 15:28N 30°11' W 093°18'0 0.0
2018-Jan-20 14:58N 30°11' W 093°18'0 0.0
2018-Jan-20 14:28N 30°11' W 093°18'0 0.0
2018-Jan-20 13:58N 30°11' W 093°18'0 0.0
2018-Jan-20 13:28N 30°11' W 093°18'0 0.0
2018-Jan-20 12:58N 30°11' W 093°18'0 0.0
2018-Jan-20 12:28N 30°11' W 093°18'0 0.0
2018-Jan-20 11:58N 30°11' W 093°18'0 0.0
2018-Jan-20 11:28N 30°11' W 093°18'0 0.0
2018-Jan-20 10:58N 30°11' W 093°18'0 0.0
2018-Jan-20 10:28N 30°11' W 093°18'0 0.0
2018-Jan-20 09:58N 30°11' W 093°18'0 0.0
2018-Jan-20 09:28N 30°11' W 093°18'0 0.0
2018-Jan-20 08:58N 30°11' W 093°18'0 0.0
2018-Jan-20 08:28N 30°11' W 093°18'0 0.0
2018-Jan-20 07:58N 30°11' W 093°18'0 0.0
2018-Jan-20 07:25N 30°11' W 093°18'0 0.0
2018-Jan-20 06:58N 30°11' W 093°18'0 0.0
2018-Jan-20 06:28N 30°11' W 093°18'0 0.0
2018-Jan-20 05:58N 30°11' W 093°18'0 0.0
2018-Jan-20 05:28N 30°11' W 093°18'0 0.0
2018-Jan-20 04:58N 30°11' W 093°18'0 0.0
2018-Jan-20 04:28N 30°11' W 093°18'0 0.0
2018-Jan-20 03:58N 30°11' W 093°18'0 0.0
2018-Jan-20 03:28N 30°11' W 093°18'0 0.0
2018-Jan-20 02:58N 30°11' W 093°18'0 0.0
2018-Jan-20 02:28N 30°11' W 093°18'0 0.0
2018-Jan-20 01:58N 30°11' W 093°18'0 0.0
2018-Jan-20 01:28N 30°11' W 093°18'0 0.0
2018-Jan-20 00:58N 30°11' W 093°18'0 0.0
2018-Jan-20 00:28N 30°11' W 093°18'0 0.0
2018-Jan-19 23:58N 30°11' W 093°18'0 0.0
2018-Jan-19 23:28N 30°11' W 093°18'0 0.0
2018-Jan-19 22:58N 30°11' W 093°18'0 0.0
2018-Jan-19 22:28N 30°11' W 093°18'0 0.0
2018-Jan-19 21:58N 30°11' W 093°18'0 0.0
2018-Jan-19 21:28N 30°11' W 093°18'0 0.0
2018-Jan-19 20:58N 30°11' W 093°18'0 0.0
2018-Jan-19 20:28N 30°11' W 093°18'0 0.0
2018-Jan-19 19:58N 30°11' W 093°18'0 0.0
2018-Jan-19 19:28N 30°11' W 093°18'0 0.0
2018-Jan-19 18:58N 30°11' W 093°18'0 0.0
2018-Jan-19 18:28N 30°11' W 093°18'0 0.0
2018-Jan-19 17:58N 30°11' W 093°18'0 0.0
2018-Jan-19 17:28N 30°11' W 093°18'0 0.0
2018-Jan-19 16:58N 30°11' W 093°18'0 0.0
2018-Jan-19 16:28N 30°11' W 093°18'2 3.6
2018-Jan-19 15:59N 30°12' W 093°17'0 0.0
2018-Jan-19 15:29N 30°12' W 093°17'0 0.0
2018-Jan-19 14:59N 30°12' W 093°17'2 3.7
2018-Jan-19 14:30N 30°11' W 093°18'0 0.1
2018-Jan-19 14:00N 30°11' W 093°18'0 0.0
2018-Jan-19 13:30N 30°11' W 093°18'0 0.0
2018-Jan-19 13:00N 30°11' W 093°18'0 0.0
2018-Jan-19 12:30N 30°11' W 093°18'0 0.0
2018-Jan-19 12:00N 30°11' W 093°18'0 0.0
2018-Jan-19 11:30N 30°11' W 093°18'0 0.0
2018-Jan-19 11:00N 30°11' W 093°18'0 0.0
2018-Jan-19 10:30N 30°11' W 093°18'0 0.0
2018-Jan-19 10:00N 30°11' W 093°18'0 0.0
2018-Jan-19 09:30N 30°11' W 093°18'0 0.0
2018-Jan-19 09:00N 30°11' W 093°18'0 0.0
2018-Jan-19 08:30N 30°11' W 093°18'0 0.0
2018-Jan-19 08:00N 30°11' W 093°18'0 0.0
2018-Jan-19 07:30N 30°11' W 093°18'0 0.0
2018-Jan-19 07:00N 30°11' W 093°18'0 0.0
2018-Jan-19 06:30N 30°11' W 093°18'0 0.0
2018-Jan-19 06:00N 30°11' W 093°18'0 0.0
2018-Jan-19 05:30N 30°11' W 093°18'0 0.0
2018-Jan-19 05:00N 30°11' W 093°18'0 0.0
2018-Jan-19 04:30N 30°11' W 093°18'0 0.0
2018-Jan-19 04:00N 30°11' W 093°18'0 0.0
2018-Jan-19 03:30N 30°11' W 093°18'0 0.0
2018-Jan-19 02:57N 30°11' W 093°18'0 0.0
2018-Jan-19 02:30N 30°11' W 093°18'0 0.0
2018-Jan-19 02:00N 30°11' W 093°18'0 0.0
2018-Jan-19 01:30N 30°11' W 093°18'0 0.0
2018-Jan-19 01:00N 30°11' W 093°18'0 0.0
2018-Jan-19 00:30N 30°11' W 093°18'0 0.0
2018-Jan-19 00:00N 30°11' W 093°18'0 0.0
2018-Jan-18 23:30N 30°11' W 093°18'0 0.0
2018-Jan-18 23:00N 30°11' W 093°18'0 0.0
2018-Jan-18 22:30N 30°11' W 093°18'0 0.0
2018-Jan-18 22:00N 30°11' W 093°18'0 0.0
2018-Jan-18 21:30N 30°11' W 093°18'0 0.0
2018-Jan-18 21:00N 30°11' W 093°18'0 0.0
2018-Jan-18 20:30N 30°11' W 093°18'0 0.0
2018-Jan-18 20:00N 30°11' W 093°18'0 0.0
2018-Jan-18 19:30N 30°11' W 093°18'0 0.0
2018-Jan-18 19:00N 30°11' W 093°18'0 0.0
2018-Jan-18 18:30N 30°11' W 093°18'0 0.0
2018-Jan-18 18:00N 30°11' W 093°18'0 0.0
2018-Jan-18 17:30N 30°11' W 093°18'0 0.0
2018-Jan-18 17:00N 30°11' W 093°18'0 0.0
2018-Jan-18 16:30N 30°11' W 093°18'0 0.0
2018-Jan-18 16:00N 30°11' W 093°18'0 0.0
2018-Jan-18 15:30N 30°11' W 093°18'0 0.0
2018-Jan-18 15:00N 30°11' W 093°18'0 0.0
2018-Jan-18 14:30N 30°11' W 093°18'0 0.0
2018-Jan-18 14:00N 30°11' W 093°18'0 0.0
2018-Jan-18 13:30N 30°11' W 093°18'0 0.0
2018-Jan-18 13:00N 30°11' W 093°18'0 0.0
2018-Jan-18 12:30N 30°11' W 093°18'0 0.0
2018-Jan-18 12:00N 30°11' W 093°18'0 0.0
2018-Jan-18 11:30N 30°11' W 093°18'0 0.0
2018-Jan-18 11:00N 30°11' W 093°18'0 0.0
2018-Jan-18 10:30N 30°11' W 093°18'0 0.0
2018-Jan-18 10:00N 30°11' W 093°18'0 0.0
2018-Jan-18 09:30N 30°11' W 093°18'0 0.0
2018-Jan-18 09:00N 30°11' W 093°18'0 0.0
2018-Jan-18 08:30N 30°11' W 093°18'0 0.0
2018-Jan-18 08:00N 30°11' W 093°18'0 0.0
2018-Jan-18 07:30N 30°11' W 093°18'0 0.0
2018-Jan-18 07:00N 30°11' W 093°18'0 0.0
2018-Jan-18 06:30N 30°11' W 093°18'0 0.0
2018-Jan-18 06:00N 30°11' W 093°18'0 0.0
2018-Jan-18 05:30N 30°11' W 093°18'0 0.0
2018-Jan-18 05:00N 30°11' W 093°18'0 0.0
2018-Jan-18 04:30N 30°11' W 093°18'0 0.0
2018-Jan-18 04:00N 30°11' W 093°18'0 0.0
2018-Jan-18 03:30N 30°11' W 093°18'0 0.0
2018-Jan-18 03:00N 30°11' W 093°18'0 0.0
2018-Jan-18 02:30N 30°11' W 093°18'0 0.0
2018-Jan-18 02:00N 30°11' W 093°18'0 0.0
2018-Jan-18 01:30N 30°11' W 093°18'0 0.0
2018-Jan-18 01:00N 30°11' W 093°18'0 0.0
2018-Jan-18 00:00N 30°11' W 093°18'0 0.0
2018-Jan-17 23:57N 30°11' W 093°18'  
Track history (hours):
 
Tides and Currents Weather Stations Pressure Air Temp Water Temp Dewpoint Dewpoint Depression Visibility Wind Speed Wind Dir Waves Ship Positions

Guadalupe

Owner: Higman Barge Lines., Inc, Orange, TX. More information available from US FCC via Universal Licensing System and Coast Guard Vessel Documentation Center.

Last reported at 2018-Jan-24 05:29 UTC. Time now 2018-Jan-24 05:50 UTC.
Position N 29°37' W 095°01'.

Length 26 m; draft 3 m.

Type: Towing. MMSI: 367536590.

Date/timePositionNaut miles runAvg speedWind from/ knotsBaromVisibWave heightAir tempDewpointWater temp
2018-Jan-24 05:29N 29°37' W 095°01'0 0.0
2018-Jan-24 04:59N 29°37' W 095°01'0 0.0
2018-Jan-24 04:29N 29°37' W 095°01'0 0.0
2018-Jan-24 03:59N 29°37' W 095°01'0 0.0
2018-Jan-24 03:29N 29°37' W 095°01'0 0.0
2018-Jan-24 02:59N 29°37' W 095°01'0 0.0
2018-Jan-24 02:26N 29°37' W 095°01'0 0.0
2018-Jan-24 01:59N 29°37' W 095°01'0 0.1
2018-Jan-24 01:29N 29°37' W 095°01'1 1.2
2018-Jan-24 01:00N 29°37' W 095°01'3 5.3
2018-Jan-24 00:30N 29°37' W 094°58'3 5.7
2018-Jan-24 00:01N 29°35' W 094°56'4 7.4
2018-Jan-23 23:30N 29°32' W 094°53'70 2.6
2018-Jan-22 20:02N 30°04' W 093°41'0 5.6
2018-Jan-22 20:00N 30°04' W 093°41'3 5.1
2018-Jan-22 19:29N 30°04' W 093°38'2 4.9
2018-Jan-22 18:59N 30°04' W 093°35'2 4.5
2018-Jan-22 18:30N 30°04' W 093°33'2 4.5
2018-Jan-22 18:00N 30°04' W 093°30'2 4.6
2018-Jan-22 17:30N 30°04' W 093°27'2 4.7
2018-Jan-22 17:01N 30°04' W 093°25'2 4.0
2018-Jan-22 16:31N 30°04' W 093°22'2 3.2
2018-Jan-22 16:01N 30°04' W 093°21'2 4.1
2018-Jan-22 15:30N 30°06' W 093°20'3 5.5
2018-Jan-22 15:00N 30°09' W 093°20'2 4.8
2018-Jan-22 14:31N 30°11' W 093°19'3 5.2
2018-Jan-22 14:00N 30°12' W 093°16'1 2.2
2018-Jan-22 13:31N 30°13' W 093°16'1 1.2
2018-Jan-22 12:58N 30°14' W 093°15'0 0.0
2018-Jan-22 12:28N 30°14' W 093°15'0 0.0
2018-Jan-22 11:58N 30°14' W 093°15'0 0.0
2018-Jan-22 11:28N 30°14' W 093°15'0 0.0
2018-Jan-22 10:58N 30°14' W 093°15'0 0.0
2018-Jan-22 10:28N 30°14' W 093°15'0 0.0
2018-Jan-22 09:58N 30°14' W 093°15'0 0.0
2018-Jan-22 09:28N 30°14' W 093°15'0 0.0
2018-Jan-22 08:58N 30°14' W 093°15'0 0.0
2018-Jan-22 08:28N 30°14' W 093°15'0 0.0
2018-Jan-22 07:58N 30°14' W 093°15'0 0.0
2018-Jan-22 07:28N 30°14' W 093°15'0 0.0
2018-Jan-22 06:58N 30°14' W 093°15'0 0.0
2018-Jan-22 06:28N 30°14' W 093°15'0 0.0
2018-Jan-22 05:58N 30°14' W 093°15'0 0.0
2018-Jan-22 05:28N 30°14' W 093°15'0 0.0
2018-Jan-22 04:58N 30°14' W 093°15'0 0.0
2018-Jan-22 04:28N 30°14' W 093°15'0 0.0
2018-Jan-22 03:58N 30°14' W 093°15'0 0.0
2018-Jan-22 03:28N 30°14' W 093°15'0 0.0
2018-Jan-22 02:58N 30°14' W 093°15'0 0.0
2018-Jan-22 02:28N 30°14' W 093°15'0 0.0
2018-Jan-22 01:58N 30°14' W 093°15'0 0.0
2018-Jan-22 01:28N 30°14' W 093°15'0 0.0
2018-Jan-22 00:58N 30°14' W 093°15'0 0.0
2018-Jan-22 00:28N 30°14' W 093°15'0 0.0
2018-Jan-21 23:58N 30°14' W 093°15'0 0.0
2018-Jan-21 23:28N 30°14' W 093°15'0 0.0
2018-Jan-21 22:58N 30°14' W 093°15'0 0.0
2018-Jan-21 22:28N 30°14' W 093°15'0 0.0
2018-Jan-21 21:58N 30°14' W 093°15'0 0.0
2018-Jan-21 21:28N 30°14' W 093°15'0 0.0
2018-Jan-21 20:58N 30°14' W 093°15'0 0.0
2018-Jan-21 20:25N 30°14' W 093°15'0 0.0
2018-Jan-21 19:58N 30°14' W 093°15'0 0.0
2018-Jan-21 19:28N 30°14' W 093°15'0 0.0
2018-Jan-21 18:58N 30°14' W 093°15'0 0.0
2018-Jan-21 18:28N 30°14' W 093°15'0 0.0
2018-Jan-21 17:58N 30°14' W 093°15'0 0.0
2018-Jan-21 17:28N 30°14' W 093°15'0 0.0
2018-Jan-21 16:58N 30°14' W 093°15'0 0.0
2018-Jan-21 16:28N 30°14' W 093°15'0 0.0
2018-Jan-21 15:58N 30°14' W 093°15'0 0.0
2018-Jan-21 15:28N 30°14' W 093°15'0 0.0
2018-Jan-21 14:58N 30°14' W 093°15'0 0.0
2018-Jan-21 14:28N 30°14' W 093°15'0 0.0
2018-Jan-21 13:58N 30°14' W 093°15'0 0.0
2018-Jan-21 13:28N 30°14' W 093°15'0 0.0
2018-Jan-21 12:58N 30°14' W 093°15'0 0.0
2018-Jan-21 12:28N 30°14' W 093°15'0 0.0
2018-Jan-21 11:58N 30°14' W 093°15'0 0.0
2018-Jan-21 11:28N 30°14' W 093°15'0 0.0
2018-Jan-21 10:58N 30°14' W 093°15'0 0.0
2018-Jan-21 10:28N 30°14' W 093°15'0 0.0
2018-Jan-21 09:58N 30°14' W 093°15'0 0.0
2018-Jan-21 09:28N 30°14' W 093°15'0 0.0
2018-Jan-21 08:58N 30°14' W 093°15'0 0.0
2018-Jan-21 08:28N 30°14' W 093°15'0 0.7
2018-Jan-21 08:00N 30°14' W 093°15'2 3.9
2018-Jan-21 07:30N 30°12' W 093°17'2 3.0
2018-Jan-21 06:55N 30°11' W 093°18'0 0.1
2018-Jan-21 06:28N 30°11' W 093°18'0 0.0
2018-Jan-21 05:58N 30°11' W 093°18'0 0.0
2018-Jan-21 05:28N 30°11' W 093°18'0 0.0
2018-Jan-21 04:58N 30°11' W 093°18'0 0.0
2018-Jan-21 04:28N 30°11' W 093°18'0 0.0
2018-Jan-21 03:58N 30°11' W 093°18'0 0.0
2018-Jan-21 03:28N 30°11' W 093°18'0 0.0
2018-Jan-21 02:58N 30°11' W 093°18'0 0.0
2018-Jan-21 02:28N 30°11' W 093°18'0 0.0
2018-Jan-21 01:58N 30°11' W 093°18'0 0.0
2018-Jan-21 01:28N 30°11' W 093°18'0 0.0
2018-Jan-21 00:58N 30°11' W 093°18'0 0.0
2018-Jan-21 00:28N 30°11' W 093°18'0 0.0
2018-Jan-20 23:58N 30°11' W 093°18'0 0.0
2018-Jan-20 23:28N 30°11' W 093°18'0 0.0
2018-Jan-20 22:58N 30°11' W 093°18'0 0.0
2018-Jan-20 22:28N 30°11' W 093°18'0 0.0
2018-Jan-20 21:58N 30°11' W 093°18'0 0.0
2018-Jan-20 21:28N 30°11' W 093°18'0 0.0
2018-Jan-20 20:58N 30°11' W 093°18'0 0.0
2018-Jan-20 20:28N 30°11' W 093°18'0 0.0
2018-Jan-20 19:58N 30°11' W 093°18'0 0.0
2018-Jan-20 19:28N 30°11' W 093°18'0 0.0
2018-Jan-20 18:58N 30°11' W 093°18'0 0.0
2018-Jan-20 18:28N 30°11' W 093°18'0 0.0
2018-Jan-20 17:58N 30°11' W 093°18'0 0.0
2018-Jan-20 17:28N 30°11' W 093°18'0 0.0
2018-Jan-20 16:58N 30°11' W 093°18'0 0.0
2018-Jan-20 16:28N 30°11' W 093°18'0 0.0
2018-Jan-20 15:58N 30°11' W 093°18'0 0.0
2018-Jan-20 15:28N 30°11' W 093°18'0 0.0
2018-Jan-20 14:58N 30°11' W 093°18'0 0.0
2018-Jan-20 14:28N 30°11' W 093°18'0 0.0
2018-Jan-20 13:58N 30°11' W 093°18'0 0.0
2018-Jan-20 13:28N 30°11' W 093°18'0 0.0
2018-Jan-20 12:58N 30°11' W 093°18'0 0.0
2018-Jan-20 12:28N 30°11' W 093°18'0 0.0
2018-Jan-20 11:58N 30°11' W 093°18'0 0.0
2018-Jan-20 11:28N 30°11' W 093°18'0 0.0
2018-Jan-20 10:58N 30°11' W 093°18'0 0.0
2018-Jan-20 10:28N 30°11' W 093°18'0 0.0
2018-Jan-20 09:58N 30°11' W 093°18'0 0.0
2018-Jan-20 09:28N 30°11' W 093°18'0 0.0
2018-Jan-20 08:58N 30°11' W 093°18'0 0.0
2018-Jan-20 08:28N 30°11' W 093°18'0 0.0
2018-Jan-20 07:58N 30°11' W 093°18'0 0.0
2018-Jan-20 07:25N 30°11' W 093°18'0 0.0
2018-Jan-20 06:58N 30°11' W 093°18'0 0.0
2018-Jan-20 06:28N 30°11' W 093°18'0 0.0
2018-Jan-20 05:58N 30°11' W 093°18'0 0.0
2018-Jan-20 05:28N 30°11' W 093°18'0 0.0
2018-Jan-20 04:58N 30°11' W 093°18'0 0.0
2018-Jan-20 04:28N 30°11' W 093°18'0 0.0
2018-Jan-20 03:58N 30°11' W 093°18'0 0.0
2018-Jan-20 03:28N 30°11' W 093°18'0 0.0
2018-Jan-20 02:58N 30°11' W 093°18'0 0.0
2018-Jan-20 02:28N 30°11' W 093°18'0 0.0
2018-Jan-20 01:58N 30°11' W 093°18'0 0.0
2018-Jan-20 01:28N 30°11' W 093°18'0 0.0
2018-Jan-20 00:58N 30°11' W 093°18'0 0.0
2018-Jan-20 00:28N 30°11' W 093°18'0 0.0
2018-Jan-19 23:58N 30°11' W 093°18'0 0.0
2018-Jan-19 23:28N 30°11' W 093°18'0 0.0
2018-Jan-19 22:58N 30°11' W 093°18'0 0.0
2018-Jan-19 22:28N 30°11' W 093°18'0 0.0
2018-Jan-19 21:58N 30°11' W 093°18'0 0.0
2018-Jan-19 21:28N 30°11' W 093°18'0 0.0
2018-Jan-19 20:58N 30°11' W 093°18'0 0.0
2018-Jan-19 20:28N 30°11' W 093°18'0 0.0
2018-Jan-19 19:58N 30°11' W 093°18'0 0.0
2018-Jan-19 19:28N 30°11' W 093°18'0 0.0
2018-Jan-19 18:58N 30°11' W 093°18'0 0.0
2018-Jan-19 18:28N 30°11' W 093°18'0 0.0
2018-Jan-19 17:58N 30°11' W 093°18'0 0.0
2018-Jan-19 17:28N 30°11' W 093°18'0 0.0
2018-Jan-19 16:58N 30°11' W 093°18'0 0.0
2018-Jan-19 16:28N 30°11' W 093°18'2 3.6
2018-Jan-19 15:59N 30°12' W 093°17'0 0.0
2018-Jan-19 15:29N 30°12' W 093°17'0 0.0
2018-Jan-19 14:59N 30°12' W 093°17'2 3.7
2018-Jan-19 14:30N 30°11' W 093°18'0 0.1
2018-Jan-19 14:00N 30°11' W 093°18'0 0.0
2018-Jan-19 13:30N 30°11' W 093°18'0 0.0
2018-Jan-19 13:00N 30°11' W 093°18'0 0.0
2018-Jan-19 12:30N 30°11' W 093°18'0 0.0
2018-Jan-19 12:00N 30°11' W 093°18'0 0.0
2018-Jan-19 11:30N 30°11' W 093°18'0 0.0
2018-Jan-19 11:00N 30°11' W 093°18'0 0.0
2018-Jan-19 10:30N 30°11' W 093°18'0 0.0
2018-Jan-19 10:00N 30°11' W 093°18'0 0.0
2018-Jan-19 09:30N 30°11' W 093°18'0 0.0
2018-Jan-19 09:00N 30°11' W 093°18'0 0.0
2018-Jan-19 08:30N 30°11' W 093°18'0 0.0
2018-Jan-19 08:00N 30°11' W 093°18'0 0.0
2018-Jan-19 07:30N 30°11' W 093°18'0 0.0
2018-Jan-19 07:00N 30°11' W 093°18'0 0.0
2018-Jan-19 06:30N 30°11' W 093°18'0 0.0
2018-Jan-19 06:00N 30°11' W 093°18'0 0.0
2018-Jan-19 05:30N 30°11' W 093°18'0 0.0
2018-Jan-19 05:00N 30°11' W 093°18'0 0.0
2018-Jan-19 04:30N 30°11' W 093°18'0 0.0
2018-Jan-19 04:00N 30°11' W 093°18'0 0.0
2018-Jan-19 03:30N 30°11' W 093°18'0 0.0
2018-Jan-19 02:57N 30°11' W 093°18'0 0.0
2018-Jan-19 02:30N 30°11' W 093°18'0 0.0
2018-Jan-19 02:00N 30°11' W 093°18'0 0.0
2018-Jan-19 01:30N 30°11' W 093°18'0 0.0
2018-Jan-19 01:00N 30°11' W 093°18'0 0.0
2018-Jan-19 00:30N 30°11' W 093°18'0 0.0
2018-Jan-19 00:00N 30°11' W 093°18'0 0.0
2018-Jan-18 23:30N 30°11' W 093°18'0 0.0
2018-Jan-18 23:00N 30°11' W 093°18'0 0.0
2018-Jan-18 22:30N 30°11' W 093°18'0 0.0
2018-Jan-18 22:00N 30°11' W 093°18'0 0.0
2018-Jan-18 21:30N 30°11' W 093°18'0 0.0
2018-Jan-18 21:00N 30°11' W 093°18'0 0.0
2018-Jan-18 20:30N 30°11' W 093°18'0 0.0
2018-Jan-18 20:00N 30°11' W 093°18'0 0.0
2018-Jan-18 19:30N 30°11' W 093°18'0 0.0
2018-Jan-18 19:00N 30°11' W 093°18'0 0.0
2018-Jan-18 18:30N 30°11' W 093°18'0 0.0
2018-Jan-18 18:00N 30°11' W 093°18'0 0.0
2018-Jan-18 17:30N 30°11' W 093°18'0 0.0
2018-Jan-18 17:00N 30°11' W 093°18'0 0.0
2018-Jan-18 16:30N 30°11' W 093°18'0 0.0
2018-Jan-18 16:00N 30°11' W 093°18'0 0.0
2018-Jan-18 15:30N 30°11' W 093°18'0 0.0
2018-Jan-18 15:00N 30°11' W 093°18'0 0.0
2018-Jan-18 14:30N 30°11' W 093°18'0 0.0
2018-Jan-18 14:00N 30°11' W 093°18'0 0.0
2018-Jan-18 13:30N 30°11' W 093°18'0 0.0
2018-Jan-18 13:00N 30°11' W 093°18'0 0.0
2018-Jan-18 12:30N 30°11' W 093°18'0 0.0
2018-Jan-18 12:00N 30°11' W 093°18'0 0.0
2018-Jan-18 11:30N 30°11' W 093°18'0 0.0
2018-Jan-18 11:00N 30°11' W 093°18'0 0.0
2018-Jan-18 10:30N 30°11' W 093°18'0 0.0
2018-Jan-18 10:00N 30°11' W 093°18'0 0.0
2018-Jan-18 09:30N 30°11' W 093°18'0 0.0
2018-Jan-18 09:00N 30°11' W 093°18'0 0.0
2018-Jan-18 08:30N 30°11' W 093°18'0 0.0
2018-Jan-18 08:00N 30°11' W 093°18'0 0.0
2018-Jan-18 07:30N 30°11' W 093°18'0 0.0
2018-Jan-18 07:00N 30°11' W 093°18'0 0.0
2018-Jan-18 06:30N 30°11' W 093°18'0 0.0
2018-Jan-18 06:00N 30°11' W 093°18'0 0.0
2018-Jan-18 05:30N 30°11' W 093°18'0 0.0
2018-Jan-18 05:00N 30°11' W 093°18'0 0.0
2018-Jan-18 04:30N 30°11' W 093°18'0 0.0
2018-Jan-18 04:00N 30°11' W 093°18'0 0.0
2018-Jan-18 03:30N 30°11' W 093°18'0 0.0
2018-Jan-18 03:00N 30°11' W 093°18'0 0.0
2018-Jan-18 02:30N 30°11' W 093°18'0 0.0
2018-Jan-18 02:00N 30°11' W 093°18'0 0.0
2018-Jan-18 01:30N 30°11' W 093°18'0 0.0
2018-Jan-18 01:00N 30°11' W 093°18'0 0.0
2018-Jan-18 00:00N 30°11' W 093°18'0 0.0
2018-Jan-17 23:57N 30°11' W 093°18'  

Dump ship's entire track history